Time,TemperatureF,DewpointF,PressureIn,WindDirection,WindDirectionDegrees,WindSpeedMPH,WindSpeedGustMPH,Humidity,HourlyPrecipIn,Conditions,Clouds,dailyrainin,SoftwareType,DateUTC
2013-04-09 00:12:00,61.4,53.0,29.96,SSE,153,2.0,3.0,74,0.00,,,0.00,weatherlink.com 1.10,2013-04-09 04:12:00,
2013-04-09 00:27:00,61.5,53.0,29.96,SSE,161,1.0,3.0,74,0.00,,,0.00,weatherlink.com 1.10,2013-04-09 04:27:00,
2013-04-09 00:43:00,60.5,53.0,29.97,SSE,165,1.0,2.0,76,0.00,,,0.00,weatherlink.com 1.10,2013-04-09 04:43:00,
2013-04-09 00:58:00,59.7,53.0,29.97,SE,126,0.0,3.0,78,0.00,,,0.00,weatherlink.com 1.10,2013-04-09 04:58:00,
2013-04-09 01:13:00,59.0,53.0,29.97,SSE,150,3.0,4.0,79,0.00,,,0.00,weatherlink.com 1.10,2013-04-09 05:13:00,
2013-04-09 01:28:00,59.0,53.0,29.98,SSE,165,0.0,4.0,79,0.00,,,0.00,weatherlink.com 1.10,2013-04-09 05:28:00,
2013-04-09 01:43:00,58.7,53.0,29.98,SE,126,1.0,4.0,80,0.00,,,0.00,weatherlink.com 1.10,2013-04-09 05:43:00,
2013-04-09 01:58:00,58.7,53.0,29.98,ESE,117,2.0,6.0,80,0.00,,,0.00,weatherlink.com 1.10,2013-04-09 05:58:00,
2013-04-09 02:13:00,58.5,52.0,29.98,ESE,107,0.0,2.0,79,0.00,,,0.00,weatherlink.com 1.10,2013-04-09 06:13:00,
2013-04-09 02:28:00,58.4,52.0,29.98,SE,140,0.0,4.0,80,0.00,,,0.00,weatherlink.com 1.10,2013-04-09 06:28:00,
2013-04-09 02:43:00,58.1,52.0,29.97,SE,128,0.0,4.0,80,0.00,,,0.00,weatherlink.com 1.10,2013-04-09 06:43:00,
2013-04-09 02:58:00,57.4,52.0,29.97,SE,128,0.0,2.0,81,0.00,,,0.00,weatherlink.com 1.10,2013-04-09 06:58:00,
2013-04-09 03:13:00,56.8,51.0,29.98,SE,128,0.0,2.0,82,0.00,,,0.00,weatherlink.com 1.10,2013-04-09 07:13:00,
2013-04-09 03:28:00,56.5,51.0,29.98,SE,128,0.0,2.0,83,0.00,,,0.00,weatherlink.com 1.10,2013-04-09 07:28:00,
2013-04-09 03:43:00,56.6,52.0,29.98,SE,128,0.0,1.0,83,0.00,,,0.00,weatherlink.com 1.10,2013-04-09 07:43:00,
2013-04-09 03:58:00,56.6,52.0,29.98,SE,128,0.0,1.0,83,0.00,,,0.00,weatherlink.com 1.10,2013-04-09 07:58:00,
2013-04-09 04:13:00,56.1,51.0,29.98,SE,128,0.0,0.0,83,0.00,,,0.00,weatherlink.com 1.10,2013-04-09 08:13:00,
2013-04-09 04:28:00,55.7,51.0,29.98,SE,128,0.0,0.0,84,0.00,,,0.00,weatherlink.com 1.10,2013-04-09 08:28:00,
2013-04-09 04:43:00,55.5,51.0,29.98,SE,128,0.0,0.0,85,0.00,,,0.00,weatherlink.com 1.10,2013-04-09 08:43:00,
2013-04-09 04:58:00,55.3,51.0,29.98,SE,128,0.0,1.0,85,0.00,,,0.00,weatherlink.com 1.10,2013-04-09 08:58:00,
2013-04-09 05:13:00,54.9,51.0,29.98,SE,128,0.0,0.0,85,0.00,,,0.00,weatherlink.com 1.10,2013-04-09 09:13:00,
2013-04-09 05:28:00,54.6,51.0,29.99,SE,128,0.0,0.0,86,0.00,,,0.00,weatherlink.com 1.10,2013-04-09 09:28:00,
2013-04-09 05:43:00,54.8,51.0,29.99,SE,128,0.0,1.0,86,0.00,,,0.00,weatherlink.com 1.10,2013-04-09 09:43:00,
2013-04-09 05:58:00,54.8,51.0,30.00,SE,128,0.0,0.0,86,0.00,,,0.00,weatherlink.com 1.10,2013-04-09 09:58:00,
2013-04-09 06:13:00,54.6,51.0,30.00,SE,128,0.0,1.0,86,0.00,,,0.00,weatherlink.com 1.10,2013-04-09 10:13:00,
2013-04-09 06:28:00,54.4,50.0,30.00,SE,128,0.0,0.0,86,0.00,,,0.00,weatherlink.com 1.10,2013-04-09 10:28:00,
2013-04-09 06:43:00,54.4,51.0,30.01,SE,128,0.0,0.0,87,0.00,,,0.00,weatherlink.com 1.10,2013-04-09 10:43:00,
2013-04-09 06:58:00,54.8,51.0,30.01,SE,128,0.0,2.0,86,0.00,,,0.00,weatherlink.com 1.10,2013-04-09 10:58:00,
2013-04-09 07:13:00,54.8,51.0,30.01,SE,128,0.0,1.0,86,0.00,,,0.00,weatherlink.com 1.10,2013-04-09 11:13:00,
2013-04-09 07:28:00,55.1,51.0,30.02,SE,128,0.0,0.0,86,0.00,,,0.00,weatherlink.com 1.10,2013-04-09 11:28:00,
2013-04-09 07:43:00,55.5,51.0,30.02,SE,128,0.0,1.0,85,0.00,,,0.00,weatherlink.com 1.10,2013-04-09 11:43:00,
2013-04-09 07:58:00,55.7,51.0,30.02,SE,128,0.0,0.0,85,0.00,,,0.00,weatherlink.com 1.10,2013-04-09 11:58:00,
2013-04-09 08:13:00,56.1,52.0,30.02,SE,131,1.0,2.0,85,0.00,,,0.00,weatherlink.com 1.10,2013-04-09 12:13:00,
2013-04-09 08:43:00,57.1,52.0,30.02,SE,133,0.0,1.0,83,0.00,,,0.00,weatherlink.com 1.10,2013-04-09 12:43:00,
2013-04-09 08:58:00,58.1,52.0,30.02,SE,133,0.0,1.0,81,0.00,,,0.00,weatherlink.com 1.10,2013-04-09 12:58:00,
2013-04-09 09:59:00,63.3,55.0,30.02,SE,146,1.0,2.0,73,0.00,,,0.00,weatherlink.com 1.10,2013-04-09 13:59:00,
2013-04-09 10:14:00,64.7,55.0,30.02,SSE,155,0.0,2.0,71,0.00,,,0.00,weatherlink.com 1.10,2013-04-09 14:14:00,
2013-04-09 10:29:00,67.0,56.0,30.02,SSW,192,3.0,5.0,68,0.00,,,0.00,weatherlink.com 1.10,2013-04-09 14:29:00,
2013-04-09 10:44:00,69.7,57.0,30.02,South,186,1.0,8.0,64,0.00,,,0.00,weatherlink.com 1.10,2013-04-09 14:44:00,
2013-04-09 10:59:00,71.3,57.0,30.01,SSW,194,4.0,10.0,61,0.00,,,0.00,weatherlink.com 1.10,2013-04-09 14:59:00,
2013-04-09 11:14:00,73.0,58.0,30.00,SSW,193,4.0,9.0,59,0.00,,,0.00,weatherlink.com 1.10,2013-04-09 15:14:00,
2013-04-09 11:29:00,74.5,58.0,30.00,South,173,8.0,12.0,57,0.00,,,0.00,weatherlink.com 1.10,2013-04-09 15:29:00,
2013-04-09 11:44:00,75.5,58.0,30.00,SW,223,6.0,12.0,55,0.00,,,0.00,weatherlink.com 1.10,2013-04-09 15:44:00,
2013-04-09 11:59:00,75.9,58.0,29.99,SSW,203,15.0,19.0,54,0.00,,,0.00,weatherlink.com 1.10,2013-04-09 15:59:00,
2013-04-09 12:14:00,76.9,58.0,29.98,SSE,164,11.0,17.0,53,0.00,,,0.00,weatherlink.com 1.10,2013-04-09 16:14:00,
2013-04-09 12:29:00,77.1,59.0,29.97,SSW,197,13.0,17.0,53,0.00,,,0.00,weatherlink.com 1.10,2013-04-09 16:29:00,
2013-04-09 12:44:00,78.3,59.0,29.96,SSE,153,8.0,17.0,52,0.00,,,0.00,weatherlink.com 1.10,2013-04-09 16:44:00,
2013-04-09 12:59:00,78.4,58.0,29.96,SSW,200,7.0,17.0,50,0.00,,,0.00,weatherlink.com 1.10,2013-04-09 16:59:00,
2013-04-09 13:14:00,78.0,58.0,29.96,SSW,211,7.0,17.0,50,0.00,,,0.00,weatherlink.com 1.10,2013-04-09 17:14:00,
2013-04-09 13:29:00,79.1,57.0,29.95,SSE,162,9.0,18.0,47,0.00,,,0.00,weatherlink.com 1.10,2013-04-09 17:29:00,
2013-04-09 13:44:00,78.5,57.0,29.96,SSW,195,5.0,23.0,48,0.00,,,0.00,weatherlink.com 1.10,2013-04-09 17:44:00,
2013-04-09 13:59:00,78.3,58.0,29.95,South,189,6.0,17.0,49,0.00,,,0.00,weatherlink.com 1.10,2013-04-09 17:59:00,
2013-04-09 14:14:00,78.6,57.0,29.95,South,190,6.0,22.0,48,0.00,,,0.00,weatherlink.com 1.10,2013-04-09 18:14:00,
2013-04-09 14:29:00,79.1,57.0,29.94,West,266,9.0,21.0,47,0.00,,,0.00,weatherlink.com 1.10,2013-04-09 18:29:00,
2013-04-09 14:44:00,80.1,57.0,29.93,South,182,8.0,17.0,45,0.00,,,0.00,weatherlink.com 1.10,2013-04-09 18:44:00,
2013-04-09 14:59:00,80.4,56.0,29.93,SW,231,6.0,19.0,44,0.00,,,0.00,weatherlink.com 1.10,2013-04-09 18:59:00,
2013-04-09 15:15:00,81.0,56.0,29.91,South,180,5.0,18.0,43,0.00,,,0.00,weatherlink.com 1.10,2013-04-09 19:15:00,
2013-04-09 15:30:00,80.9,56.0,29.89,SW,235,8.0,19.0,43,0.00,,,0.00,weatherlink.com 1.10,2013-04-09 19:30:00,
2013-04-09 15:45:00,81.2,57.0,29.90,South,188,7.0,24.0,43,0.00,,,0.00,weatherlink.com 1.10,2013-04-09 19:45:00,
2013-04-09 16:00:00,81.2,56.0,29.90,SSE,161,9.0,20.0,42,0.00,,,0.00,weatherlink.com 1.10,2013-04-09 20:00:00,
2013-04-09 16:15:00,81.2,56.0,29.89,South,180,11.0,18.0,42,0.00,,,0.00,weatherlink.com 1.10,2013-04-09 20:15:00,
2013-04-09 16:30:00,81.5,56.0,29.89,South,188,5.0,18.0,41,0.00,,,0.00,weatherlink.com 1.10,2013-04-09 20:30:00,
2013-04-09 16:45:00,81.0,55.0,29.89,SSE,168,15.0,19.0,41,0.00,,,0.00,weatherlink.com 1.10,2013-04-09 20:45:00,
2013-04-09 17:00:00,81.0,56.0,29.89,SSW,202,7.0,16.0,42,0.00,,,0.00,weatherlink.com 1.10,2013-04-09 21:00:00,
2013-04-09 17:15:00,81.5,56.0,29.89,South,171,11.0,15.0,42,0.00,,,0.00,weatherlink.com 1.10,2013-04-09 21:15:00,
2013-04-09 17:30:00,81.5,56.0,29.89,SE,140,3.0,15.0,42,0.00,,,0.00,weatherlink.com 1.10,2013-04-09 21:30:00,
2013-04-09 17:45:00,81.6,56.0,29.90,South,178,12.0,18.0,41,0.00,,,0.00,weatherlink.com 1.10,2013-04-09 21:45:00,
2013-04-09 18:00:00,81.5,56.0,29.90,South,190,6.0,18.0,42,0.00,,,0.00,weatherlink.com 1.10,2013-04-09 22:00:00,
2013-04-09 18:15:00,81.4,56.0,29.90,SSE,152,8.0,18.0,42,0.00,,,0.00,weatherlink.com 1.10,2013-04-09 22:15:00,
2013-04-09 18:30:00,81.3,56.0,29.89,SSW,203,7.0,13.0,42,0.00,,,0.00,weatherlink.com 1.10,2013-04-09 22:30:00,
2013-04-09 18:45:00,80.7,56.0,29.90,SSW,207,6.0,13.0,43,0.00,,,0.00,weatherlink.com 1.10,2013-04-09 22:45:00,
2013-04-09 19:00:00,80.5,57.0,29.90,SSW,196,4.0,13.0,44,0.00,,,0.00,weatherlink.com 1.10,2013-04-09 23:00:00,
2013-04-09 19:15:00,79.9,57.0,29.90,SSW,211,5.0,13.0,46,0.00,,,0.00,weatherlink.com 1.10,2013-04-09 23:15:00,
2013-04-09 19:30:00,79.4,57.0,29.90,SW,216,10.0,12.0,47,0.00,,,0.00,weatherlink.com 1.10,2013-04-09 23:30:00,
2013-04-09 19:45:00,78.8,57.0,29.90,South,181,5.0,9.0,48,0.00,,,0.00,weatherlink.com 1.10,2013-04-09 23:45:00,
2013-04-09 20:00:00,78.4,58.0,29.90,SSW,194,4.0,9.0,49,0.00,,,0.00,weatherlink.com 1.10,2013-04-10 00:00:00,
2013-04-09 20:15:00,77.7,58.0,29.90,South,188,3.0,7.0,50,0.00,,,0.00,weatherlink.com 1.10,2013-04-10 00:15:00,
2013-04-09 20:30:00,77.1,58.0,29.90,South,187,2.0,6.0,51,0.00,,,0.00,weatherlink.com 1.10,2013-04-10 00:30:00,
2013-04-09 20:45:00,76.7,58.0,29.90,SSE,165,5.0,10.0,52,0.00,,,0.00,weatherlink.com 1.10,2013-04-10 00:45:00,
2013-04-09 21:00:00,76.1,58.0,29.90,South,177,5.0,5.0,53,0.00,,,0.00,weatherlink.com 1.10,2013-04-10 01:00:00,
2013-04-09 21:15:00,75.4,57.0,29.91,SSE,153,1.0,7.0,54,0.00,,,0.00,weatherlink.com 1.10,2013-04-10 01:15:00,
2013-04-09 21:30:00,74.8,58.0,29.92,South,169,2.0,5.0,56,0.00,,,0.00,weatherlink.com 1.10,2013-04-10 01:30:00,
2013-04-09 21:45:00,74.2,57.0,29.92,South,170,1.0,4.0,56,0.00,,,0.00,weatherlink.com 1.10,2013-04-10 01:45:00,
2013-04-09 22:00:00,73.7,58.0,29.93,South,173,3.0,6.0,58,0.00,,,0.00,weatherlink.com 1.10,2013-04-10 02:00:00,
2013-04-09 22:15:00,73.6,58.0,29.94,SSE,163,1.0,11.0,59,0.00,,,0.00,weatherlink.com 1.10,2013-04-10 02:15:00,
2013-04-09 22:30:00,73.3,58.0,29.94,SSW,195,7.0,10.0,60,0.00,,,0.00,weatherlink.com 1.10,2013-04-10 02:30:00,
2013-04-09 22:45:00,72.9,59.0,29.94,South,191,6.0,11.0,61,0.00,,,0.00,weatherlink.com 1.10,2013-04-10 02:45:00,
2013-04-09 23:00:00,72.9,59.0,29.94,South,186,2.0,15.0,61,0.00,,,0.00,weatherlink.com 1.10,2013-04-10 03:00:00,
2013-04-09 23:15:00,73.0,59.0,29.93,South,185,6.0,12.0,61,0.00,,,0.00,weatherlink.com 1.10,2013-04-10 03:15:00,
2013-04-09 23:30:00,72.7,58.0,29.93,South,175,6.0,16.0,61,0.00,,,0.00,weatherlink.com 1.10,2013-04-10 03:30:00,
2013-04-09 23:45:00,72.7,58.0,29.93,South,180,2.0,9.0,60,0.00,,,0.00,weatherlink.com 1.10,2013-04-10 03:45:00,